Date,TemperatureHighF,TemperatureAvgF,TemperatureLowF,DewpointHighF,DewpointAvgF,DewpointLowF,HumidityHigh,HumidityAvg,HumidityLow,PressureMaxIn,PressureMinIn,WindSpeedMaxMPH,WindSpeedAvgMPH,GustSpeedMaxMPH,PrecipitationSumIn
2013-11-1,58.7,54.5,52.6,52.3,51.1,49.9,96,89,76,30.23,29.80,7,1,9,0.00
2013-11-2,54.8,51.3,45.6,52.0,46.2,40.5,97,83,68,29.83,29.45,34,8,43,0.02
2013-11-3,51.5,45.5,42.3,43.0,41.4,38.7,95,86,67,30.06,29.84,10,1,12,0.01
2013-11-4,48.8,44.3,38.6,42.1,39.6,35.6,100,85,63,30.15,30.02,5,1,7,0.03
2013-11-5,54.3,48.4,44.8,49.7,46.0,42.0,98,92,81,30.21,29.97,17,2,21,0.01
2013-11-6,51.0,48.5,45.0,47.9,45.7,43.9,96,90,82,30.28,29.99,6,0,9,0.04
2013-11-7,51.5,50.0,48.7,49.6,47.7,45.8,97,92,82,29.99,29.67,25,8,31,0.01
2013-11-8,54.0,49.9,45.9,46.2,45.0,43.7,94,84,72,30.11,29.93,13,3,17,0.00
2013-11-9,51.0,46.4,41.1,46.0,43.7,40.3,98,91,77,30.11,30.03,6,1,7,0.01
2013-11-10,49.3,47.4,45.6,46.6,45.2,43.9,96,92,87,30.11,30.05,10,2,12,0.01
2013-11-11,58.2,48.4,43.4,50.1,45.8,42.4,98,91,71,30.11,29.96,9,0,10,0.00
2013-11-12,58.5,52.8,45.6,53.9,50.1,44.5,97,91,82,30.31,29.98,16,4,22,0.01
2013-11-13,55.0,53.3,50.6,51.1,49.3,47.5,93,87,79,30.39,30.27,18,3,23,0.00
2013-11-14,50.5,47.6,44.4,48.1,46.3,43.8,100,96,90,30.27,30.02,6,0,10,0.01
2013-11-15,49.9,46.2,44.3,47.9,44.0,40.9,98,92,85,30.02,29.28,26,7,36,0.06
2013-11-16,48.8,45.7,42.4,45.2,40.3,38.1,96,82,68,29.72,29.31,16,5,20,0.01
2013-11-17,52.0,48.2,45.1,47.5,44.5,39.7,92,87,79,29.85,29.73,28,10,36,0.00
2013-11-18,53.0,50.2,48.1,51.5,48.7,45.7,98,95,88,29.85,29.51,15,5,25,0.09
2013-11-19,54.2,45.3,39.5,52.0,38.5,24.8,94,78,50,30.02,29.50,27,5,34,0.01
2013-11-20,43.1,38.4,34.7,32.9,29.4,25.0,84,71,50,30.46,30.03,14,2,16,0.00
2013-11-21,44.3,36.2,31.3,32.9,28.9,25.9,92,76,49,30.62,30.47,8,1,11,0.00
2013-11-22,46.2,38.0,32.0,33.6,30.3,27.8,89,75,50,30.61,30.42,7,1,12,0.00
2013-11-23,51.7,40.1,32.8,39.1,34.7,30.7,99,82,55,30.41,30.15,5,0,9,0.00
2013-11-24,50.1,40.5,34.1,44.4,37.9,33.0,98,91,76,30.21,30.12,5,0,8,0.00
2013-11-25,49.5,41.4,35.8,43.4,39.1,35.0,98,92,75,30.27,30.21,12,0,15,0.00
2013-11-26,48.9,43.0,36.8,45.3,40.6,36.5,99,92,74,30.22,30.06,5,1,6,0.01
2013-11-27,55.5,46.7,39.5,46.2,42.3,38.4,96,85,63,30.05,29.91,6,0,7,0.00
2013-11-28,45.2,40.6,37.4,45.1,40.1,36.4,100,98,96,30.13,29.98,4,0,6,0.00
2013-11-29,47.7,45.0,40.4,46.6,43.7,40.1,100,95,86,30.27,30.13,6,1,9,0.00
2013-11-30,51.4,48.9,46.3,48.8,45.8,44.1,95,89,84,30.28,30.05,20,7,26,0.04